Time;durP1;ratioP1;P1;durP2;ratioP2;P2;SDS_P1;SDS_P2;PMS_P1;PMS_P2;Temp;Humidity;BMP_temperature;BMP_pressure;BME280_temperature;BME280_humidity;BME280_pressure;Samples;Min_cycle;Max_cycle;Signal;HPM_P1;HPM_P2
2022/11/25 00:00:09;;;;;;;65.27;19.90;;;0.40;99.90;;;;;;4724335;30;20315;-88
2022/11/25 00:02:42;;;;;;;65.23;19.73;;;0.40;99.90;;;;;;4746868;30;20241;-88
2022/11/25 00:05:09;;;;;;;65.27;20.60;;;0.50;99.90;;;;;;4732829;30;20271;-87
2022/11/25 00:07:36;;;;;;;64.53;19.67;;;0.60;99.90;;;;;;4704035;30;20728;-87
2022/11/25 00:10:05;;;;;;;64.50;19.93;;;0.60;99.90;;;;;;4703531;30;20268;-87
2022/11/25 00:12:32;;;;;;;64.27;20.93;;;0.70;99.90;;;;;;4703705;30;20218;-89
2022/11/25 00:14:59;;;;;;;64.27;20.37;;;0.80;99.90;;;;;;4704011;30;20305;-89
2022/11/25 00:17:26;;;;;;;64.83;20.00;;;0.70;99.90;;;;;;4718550;30;20257;-88
2022/11/25 00:19:53;;;;;;;61.37;20.30;;;0.80;99.90;;;;;;4752822;30;20223;-89
2022/11/25 00:22:20;;;;;;;69.33;20.83;;;0.80;99.90;;;;;;4774922;30;20321;-90
2022/11/25 00:24:47;;;;;;;64.97;19.67;;;0.80;99.90;;;;;;4788813;30;20196;-88
2022/11/25 00:27:14;;;;;;;64.43;19.47;;;0.80;99.90;;;;;;4789900;30;20285;-89
2022/11/25 00:29:42;;;;;;;64.33;20.13;;;0.80;99.90;;;;;;4775300;30;20210;-89
2022/11/25 00:32:09;;;;;;;66.20;21.10;;;0.90;99.90;;;;;;4775147;30;20264;-89
2022/11/25 00:34:39;;;;;;;68.37;20.93;;;0.80;99.90;;;;;;4790349;29;20200;-90
2022/11/25 00:37:13;;;;;;;71.10;22.07;;;0.90;99.90;;;;;;4775815;30;20273;-89
2022/11/25 00:39:40;;;;;;;80.23;21.27;;;0.90;99.90;;;;;;4774636;30;20621;-89
2022/11/25 00:44:54;;;;;;;68.03;20.63;;;1.00;99.90;;;;;;4804907;29;20262;-88
2022/11/25 00:47:21;;;;;;;70.50;22.03;;;0.90;99.90;;;;;;4774633;30;20705;-88
2022/11/25 00:49:51;;;;;;;71.00;21.93;;;1.00;99.90;;;;;;4774607;30;20291;-89
2022/11/25 00:52:21;;;;;;;65.63;20.93;;;1.00;99.90;;;;;;4790724;30;20189;-89
2022/11/25 00:54:49;;;;;;;61.17;20.17;;;0.90;99.90;;;;;;4791031;30;20272;-88
2022/11/25 00:57:18;;;;;;;70.70;21.57;;;0.90;99.90;;;;;;4804286;29;20257;-88
2022/11/25 00:59:53;;;;;;;64.63;21.17;;;0.80;99.90;;;;;;4774500;30;20216;-90
2022/11/25 01:02:21;;;;;;;66.37;21.03;;;0.70;99.90;;;;;;4774417;30;20216;-89
2022/11/25 01:04:48;;;;;;;71.60;22.53;;;0.70;99.90;;;;;;4791981;29;20238;-89
2022/11/25 01:07:16;;;;;;;69.07;22.13;;;0.70;99.90;;;;;;4774636;30;20207;-90
2022/11/25 01:09:46;;;;;;;67.07;22.27;;;0.50;99.90;;;;;;4774679;30;20193;-90
2022/11/25 01:12:13;;;;;;;66.43;22.63;;;0.50;99.90;;;;;;4774317;30;20612;-90
2022/11/25 01:14:40;;;;;;;71.67;21.87;;;0.70;99.90;;;;;;4774295;30;20236;-90
2022/11/25 01:17:07;;;;;;;75.17;22.20;;;0.70;99.90;;;;;;4773849;29;20555;-90
2022/11/25 01:19:39;;;;;;;77.03;23.83;;;0.60;99.90;;;;;;4804081;29;20729;-90
2022/11/25 01:22:09;;;;;;;71.57;21.57;;;0.50;99.90;;;;;;4776103;30;20211;-91
2022/11/25 01:24:37;;;;;;;64.97;21.03;;;0.70;99.90;;;;;;4774126;30;20198;-91
2022/11/25 01:27:09;;;;;;;71.93;22.03;;;0.70;99.90;;;;;;4774497;30;20212;-91
2022/11/25 01:29:43;;;;;;;69.13;21.77;;;0.80;99.90;;;;;;4788503;30;20242;-91
2022/11/25 01:32:13;;;;;;;73.47;22.57;;;0.90;99.90;;;;;;4773936;29;20294;-90
2022/11/25 01:34:40;;;;;;;67.33;22.17;;;0.90;99.90;;;;;;4782422;30;20211;-88
2022/11/25 01:37:07;;;;;;;77.17;21.77;;;0.90;99.90;;;;;;4774552;30;20211;-89
2022/11/25 01:39:35;;;;;;;75.10;22.47;;;1.00;99.90;;;;;;4804114;29;20234;-89
2022/11/25 01:42:02;;;;;;;77.27;22.93;;;0.90;99.90;;;;;;4773758;30;20288;-88
2022/11/25 01:44:31;;;;;;;76.73;22.40;;;0.90;99.90;;;;;;4773200;30;20654;-89
2022/11/25 01:47:09;;;;;;;77.93;22.33;;;0.90;99.90;;;;;;4773352;29;20761;-89
2022/11/25 01:49:45;;;;;;;79.73;22.10;;;1.00;99.90;;;;;;4773587;30;20207;-87
2022/11/25 01:52:34;;;;;;;74.57;23.83;;;1.00;99.90;;;;;;4789741;29;20246;-87
2022/11/25 01:55:16;;;;;;;67.73;20.87;;;1.00;99.90;;;;;;4774756;30;20203;-88
2022/11/25 01:57:50;;;;;;;73.77;22.13;;;1.00;99.90;;;;;;4788285;29;20224;-88
2022/11/25 02:00:19;;;;;;;74.13;22.53;;;1.20;99.90;;;;;;4789964;30;20203;-87
2022/11/25 02:02:48;;;;;;;71.67;21.53;;;1.10;99.90;;;;;;4790374;29;20214;-87
2022/11/25 02:05:20;;;;;;;69.87;21.43;;;1.00;99.90;;;;;;4789309;29;20211;-87
2022/11/25 02:07:50;;;;;;;60.33;19.47;;;1.00;99.90;;;;;;4802863;29;20208;-88
2022/11/25 02:10:24;;;;;;;63.00;20.63;;;1.00;99.90;;;;;;4772979;30;20275;-87
2022/11/25 02:12:51;;;;;;;66.23;20.93;;;0.80;99.90;;;;;;4758631;30;20659;-88
2022/11/25 02:15:20;;;;;;;73.63;21.10;;;0.80;99.90;;;;;;4789296;29;20200;-88
2022/11/25 02:17:48;;;;;;;68.83;21.07;;;0.80;99.90;;;;;;4802966;29;20682;-88
2022/11/25 02:20:18;;;;;;;71.90;21.13;;;0.80;99.90;;;;;;4773288;30;20208;-87
2022/11/25 02:22:53;;;;;;;77.60;21.30;;;0.90;99.90;;;;;;4789915;29;20216;-87
2022/11/25 02:25:25;;;;;;;71.33;21.20;;;0.90;99.90;;;;;;4773046;30;20210;-88
2022/11/25 02:28:05;;;;;;;79.73;21.40;;;0.90;99.90;;;;;;4773178;30;20753;-87
2022/11/25 02:30:34;;;;;;;72.20;21.57;;;1.00;99.90;;;;;;4789440;30;20214;-88
2022/11/25 02:33:04;;;;;;;75.27;22.23;;;1.00;99.90;;;;;;4773043;30;20211;-89
2022/11/25 02:35:35;;;;;;;72.03;21.63;;;1.10;99.90;;;;;;4773351;30;20219;-88
2022/11/25 02:38:33;;;;;;;75.47;21.80;;;1.00;99.90;;;;;;4789128;30;20253;-89
2022/11/25 02:41:26;;;;;;;76.43;21.97;;;1.00;99.90;;;;;;4787980;29;20250;-89
2022/11/25 02:43:57;;;;;;;78.47;21.53;;;1.00;99.90;;;;;;4789423;30;20184;-91
2022/11/25 02:46:29;;;;;;;77.40;21.00;;;0.90;99.90;;;;;;4772403;30;20219;-89
2022/11/25 02:48:58;;;;;;;79.53;22.33;;;0.90;99.90;;;;;;4772970;30;20697;-89
2022/11/25 02:51:36;;;;;;;71.73;20.30;;;0.90;99.90;;;;;;4790189;30;20218;-87
2022/11/25 02:54:04;;;;;;;78.63;20.83;;;1.00;99.90;;;;;;4772119;30;20227;-87
2022/11/25 02:56:34;;;;;;;80.10;21.63;;;1.00;99.90;;;;;;4772538;30;20673;-87
2022/11/25 02:59:03;;;;;;;76.97;21.37;;;0.90;99.90;;;;;;4772522;30;20232;-87
2022/11/25 03:01:31;;;;;;;83.80;21.87;;;0.90;99.90;;;;;;4788448;30;20622;-87
2022/11/25 03:03:59;;;;;;;84.50;22.33;;;1.00;99.90;;;;;;4788106;30;20751;-88
2022/11/25 03:06:27;;;;;;;76.77;21.90;;;0.90;99.90;;;;;;4787730;30;20241;-87
2022/11/25 03:08:55;;;;;;;81.37;22.63;;;0.90;99.90;;;;;;4788610;30;20617;-87
2022/11/25 03:12:17;;;;;;;73.47;21.63;;;0.90;99.90;;;;;;4788134;29;20278;-87
2022/11/25 03:14:09;;;;;;;81.77;22.93;;;0.90;99.90;;;;;;4772520;30;20254;-88
2022/11/25 03:16:36;;;;;;;79.33;22.73;;;0.80;99.90;;;;;;4788164;29;20204;-87
2022/11/25 03:19:04;;;;;;;85.10;23.33;;;0.80;99.90;;;;;;4772774;30;20223;-88
2022/11/25 03:21:32;;;;;;;74.90;22.40;;;0.80;99.90;;;;;;4775577;30;20215;-87
2022/11/25 03:23:59;;;;;;;79.60;22.07;;;0.90;99.90;;;;;;4803563;29;20205;-87
2022/11/25 03:26:29;;;;;;;74.27;22.33;;;0.80;99.90;;;;;;4788073;30;20185;-88
2022/11/25 03:28:56;;;;;;;76.03;21.27;;;0.80;99.90;;;;;;4771925;30;20265;-88
2022/11/25 03:31:23;;;;;;;74.80;22.67;;;0.70;99.90;;;;;;4772123;30;20242;-88
2022/11/25 03:33:50;;;;;;;68.17;21.37;;;0.70;99.90;;;;;;4771912;30;20297;-87
2022/11/25 03:36:17;;;;;;;66.40;20.93;;;0.80;99.90;;;;;;4772063;30;20929;-90
2022/11/25 03:38:44;;;;;;;68.13;20.93;;;0.50;99.90;;;;;;4772684;30;20239;-88
2022/11/25 03:41:11;;;;;;;64.50;20.97;;;0.50;99.90;;;;;;4787360;30;20257;-89
2022/11/25 03:43:39;;;;;;;70.60;21.57;;;0.60;99.90;;;;;;4772169;30;20276;-90
2022/11/25 03:46:06;;;;;;;66.80;20.17;;;0.60;99.90;;;;;;4775520;30;20234;-87
2022/11/25 03:48:33;;;;;;;69.40;20.53;;;0.60;99.90;;;;;;4788882;29;20244;-85
2022/11/25 03:51:00;;;;;;;65.90;20.50;;;0.70;99.90;;;;;;4772849;30;20208;-88
2022/11/25 03:53:27;;;;;;;70.73;22.10;;;0.60;99.90;;;;;;4787584;29;20245;-87
2022/11/25 03:55:55;;;;;;;74.13;21.60;;;0.70;99.90;;;;;;4788455;29;20613;-88
2022/11/25 03:58:22;;;;;;;69.77;21.43;;;0.70;99.90;;;;;;4789431;29;20247;-88
2022/11/25 04:00:50;;;;;;;66.57;21.73;;;0.80;99.90;;;;;;4761003;30;20218;-87
2022/11/25 04:03:18;;;;;;;66.73;22.20;;;0.70;99.90;;;;;;4775959;30;20710;-90
2022/11/25 04:05:53;;;;;;;74.50;23.30;;;0.70;99.90;;;;;;4792142;29;20196;-90
2022/11/25 04:08:21;;;;;;;67.43;22.47;;;0.60;99.90;;;;;;4776336;30;20208;-85
2022/11/25 04:14:59;;;;;;;70.77;23.17;;;0.70;99.90;;;;;;4815129;24;20250;-89
2022/11/25 04:17:31;;;;;;;67.07;22.83;;;0.70;99.90;;;;;;4793728;29;20208;-92
2022/11/25 04:28:05;;;;;;;75.60;24.10;;;0.70;99.90;;;;;;4735492;30;20285;-86
2022/11/25 04:30:32;;;;;;;72.83;24.17;;;0.70;99.90;;;;;;4735479;30;20236;-87
2022/11/25 04:33:00;;;;;;;73.80;25.07;;;0.60;99.90;;;;;;4721203;30;20214;-89
2022/11/25 04:35:27;;;;;;;83.60;25.73;;;0.60;99.90;;;;;;4710799;30;20214;-87
2022/11/25 04:37:54;;;;;;;75.53;24.30;;;0.60;99.90;;;;;;4738140;30;20284;-89
2022/11/25 04:40:21;;;;;;;78.73;25.80;;;0.60;99.90;;;;;;4735222;30;20244;-86
2022/11/25 04:42:48;;;;;;;79.10;25.00;;;0.70;99.90;;;;;;4736235;30;20257;-89
2022/11/25 04:45:17;;;;;;;69.70;24.50;;;0.80;99.90;;;;;;4735685;30;20271;-88
2022/11/25 04:47:59;;;;;;;74.43;23.73;;;0.70;99.90;;;;;;4735687;30;20667;-92
2022/11/25 04:50:30;;;;;;;72.53;23.00;;;0.80;99.90;;;;;;4734896;30;20241;-90
2022/11/25 04:53:00;;;;;;;80.33;24.63;;;0.70;99.90;;;;;;4735294;30;20247;-91
2022/11/25 04:55:30;;;;;;;68.97;22.70;;;0.60;99.90;;;;;;4735230;30;20216;-90
2022/11/25 04:57:57;;;;;;;68.70;22.03;;;0.60;99.90;;;;;;4743968;30;20579;-85
2022/11/25 05:00:24;;;;;;;71.57;23.70;;;0.70;99.90;;;;;;4780017;30;20262;-86
2022/11/25 05:02:52;;;;;;;67.97;23.23;;;0.60;99.90;;;;;;4795987;29;20247;-85
2022/11/25 05:05:26;;;;;;;71.70;23.10;;;0.50;99.90;;;;;;4798566;29;20765;-85
2022/11/25 05:07:54;;;;;;;70.10;22.80;;;0.50;99.90;;;;;;4774280;30;20202;-85
2022/11/25 05:10:22;;;;;;;76.93;23.40;;;0.60;99.90;;;;;;4790287;29;20618;-85
2022/11/25 05:12:49;;;;;;;72.23;22.87;;;0.40;99.90;;;;;;4773553;29;20570;-83
2022/11/25 05:15:16;;;;;;;76.17;24.13;;;0.30;99.90;;;;;;4790080;30;20704;-85
2022/11/25 05:17:43;;;;;;;69.57;22.43;;;0.30;99.90;;;;;;4789875;29;20693;-86
2022/11/25 05:20:10;;;;;;;71.07;22.53;;;0.40;99.90;;;;;;4773678;30;20239;-87
2022/11/25 05:22:37;;;;;;;73.97;22.40;;;0.50;99.90;;;;;;4773743;30;20204;-86
2022/11/25 05:25:05;;;;;;;68.63;21.10;;;0.50;99.90;;;;;;4773623;30;20260;-87
2022/11/25 05:27:32;;;;;;;70.83;22.27;;;0.50;99.90;;;;;;4773512;30;20243;-87
2022/11/25 05:29:59;;;;;;;68.73;21.47;;;0.50;99.90;;;;;;4775164;30;20257;-86
2022/11/25 05:32:28;;;;;;;62.40;19.87;;;0.50;99.90;;;;;;4773855;30;20200;-85
2022/11/25 05:34:55;;;;;;;61.90;20.60;;;0.40;99.90;;;;;;4789609;29;20237;-84
2022/11/25 05:37:22;;;;;;;62.77;19.60;;;0.30;99.90;;;;;;4759128;30;20210;-86
2022/11/25 05:39:50;;;;;;;61.87;19.87;;;0.50;99.90;;;;;;4758911;30;20231;-85
2022/11/25 05:42:17;;;;;;;61.70;20.67;;;0.50;99.90;;;;;;4773376;30;20550;-87
2022/11/25 05:44:44;;;;;;;72.57;21.30;;;0.50;99.90;;;;;;4773203;30;20227;-88
2022/11/25 05:47:11;;;;;;;56.57;18.57;;;0.50;99.90;;;;;;4773475;30;20295;-88
2022/11/25 05:49:38;;;;;;;71.37;19.50;;;0.40;99.90;;;;;;4758812;30;20207;-84
2022/11/25 05:52:05;;;;;;;61.30;19.33;;;0.40;99.90;;;;;;4789545;29;20231;-87
2022/11/25 05:54:32;;;;;;;61.47;19.57;;;0.40;99.90;;;;;;4773444;30;20217;-86
2022/11/25 05:56:59;;;;;;;60.53;19.10;;;0.40;99.90;;;;;;4773465;30;20283;-87
2022/11/25 05:59:26;;;;;;;67.63;19.60;;;0.40;99.90;;;;;;4773152;30;20314;-89
2022/11/25 06:01:53;;;;;;;64.03;18.83;;;0.40;99.90;;;;;;4773359;30;20285;-88
2022/11/25 06:04:20;;;;;;;63.80;18.07;;;0.40;99.90;;;;;;4773483;30;20232;-88
2022/11/25 06:06:48;;;;;;;58.10;19.07;;;0.40;99.90;;;;;;4773281;30;20211;-87
2022/11/25 06:09:14;;;;;;;66.53;21.03;;;0.50;99.90;;;;;;4773269;30;20207;-87
2022/11/25 06:11:41;;;;;;;58.10;18.47;;;0.50;99.90;;;;;;4773010;30;20222;-88
2022/11/25 06:14:08;;;;;;;64.67;19.10;;;0.70;99.90;;;;;;4769673;30;20239;-87
2022/11/25 06:16:35;;;;;;;64.57;20.17;;;0.60;99.90;;;;;;4770582;30;20329;-88
2022/11/25 06:19:05;;;;;;;64.37;19.53;;;0.60;99.90;;;;;;4769925;30;20233;-87
2022/11/25 06:21:33;;;;;;;68.17;19.00;;;0.50;99.90;;;;;;4769576;30;20197;-88
2022/11/25 06:24:00;;;;;;;58.67;19.17;;;0.40;99.90;;;;;;4769924;30;20205;-89
2022/11/25 06:26:27;;;;;;;58.07;18.70;;;0.40;99.90;;;;;;4769933;30;20216;-87
2022/11/25 06:28:55;;;;;;;63.80;19.77;;;0.40;99.90;;;;;;4770059;30;20670;-85
2022/11/25 06:31:24;;;;;;;61.37;19.40;;;0.50;99.90;;;;;;4770105;30;20652;-86
2022/11/25 06:33:52;;;;;;;55.70;17.30;;;0.50;99.90;;;;;;4769561;30;20219;-84
2022/11/25 06:36:20;;;;;;;59.23;18.73;;;0.70;99.90;;;;;;4769502;30;20669;-87
2022/11/25 06:38:50;;;;;;;62.23;18.83;;;0.60;99.90;;;;;;4769771;30;20652;-85
2022/11/25 06:41:18;;;;;;;51.40;16.43;;;0.50;99.90;;;;;;4770586;30;20560;-85
2022/11/25 06:43:48;;;;;;;59.47;18.23;;;0.50;99.90;;;;;;4770477;30;20212;-88
2022/11/25 06:46:17;;;;;;;60.47;19.20;;;0.50;99.90;;;;;;4769353;30;20204;-88
2022/11/25 06:48:54;;;;;;;55.37;18.53;;;0.50;99.90;;;;;;4769432;30;20207;-88
2022/11/25 06:51:23;;;;;;;67.47;20.30;;;0.60;99.90;;;;;;4770566;30;20205;-86
2022/11/25 06:53:50;;;;;;;58.00;18.43;;;0.60;99.90;;;;;;4769495;30;20237;-87
2022/11/25 06:56:18;;;;;;;63.17;19.33;;;0.70;99.90;;;;;;4770448;30;20536;-84
2022/11/25 06:58:47;;;;;;;66.23;19.70;;;0.70;99.90;;;;;;4769512;30;20198;-86
2022/11/25 07:01:19;;;;;;;65.20;19.17;;;0.80;99.90;;;;;;4769626;30;20242;-85
2022/11/25 07:03:48;;;;;;;65.30;19.23;;;0.80;99.90;;;;;;4769289;30;20236;-85
2022/11/25 07:06:16;;;;;;;63.43;18.07;;;0.60;99.90;;;;;;4770416;30;20201;-85
2022/11/25 07:08:44;;;;;;;59.30;19.73;;;0.70;99.90;;;;;;4783821;29;20201;-85
2022/11/25 07:11:22;;;;;;;64.63;19.43;;;0.50;99.90;;;;;;4769198;30;20207;-85
2022/11/25 07:13:57;;;;;;;65.63;18.90;;;0.50;99.90;;;;;;4768881;30;20765;-84
2022/11/25 07:16:26;;;;;;;66.70;19.63;;;0.50;99.90;;;;;;4754269;30;20662;-84
2022/11/25 07:18:53;;;;;;;65.03;19.20;;;0.50;99.90;;;;;;4768777;30;20288;-85
2022/11/25 07:21:23;;;;;;;63.80;18.87;;;0.60;99.90;;;;;;4769428;30;20201;-86
2022/11/25 07:23:51;;;;;;;68.03;19.23;;;0.60;99.90;;;;;;4769913;30;20650;-88
2022/11/25 07:26:20;;;;;;;76.20;20.93;;;0.60;99.90;;;;;;4769631;30;20216;-86
2022/11/25 07:28:59;;;;;;;66.20;20.47;;;0.60;99.90;;;;;;4768917;30;20303;-86
2022/11/25 07:31:32;;;;;;;72.30;19.97;;;0.60;99.90;;;;;;4770309;30;20213;-85
2022/11/25 07:34:09;;;;;;;68.50;19.27;;;0.60;99.90;;;;;;4777900;30;20205;-87
2022/11/25 07:36:35;;;;;;;63.33;19.57;;;0.80;99.90;;;;;;4779477;30;20247;-88
2022/11/25 07:39:06;;;;;;;62.47;20.00;;;0.70;99.90;;;;;;4773092;30;20196;-87
2022/11/25 07:41:34;;;;;;;59.10;19.67;;;0.70;99.90;;;;;;4777419;30;20204;-87
2022/11/25 07:44:03;;;;;;;65.27;20.23;;;0.80;99.90;;;;;;4774724;30;20209;-86
2022/11/25 07:46:33;;;;;;;55.13;16.77;;;0.80;99.90;;;;;;4775602;30;20229;-86
2022/11/25 07:49:03;;;;;;;66.23;18.70;;;0.80;99.90;;;;;;4776706;30;20265;-86
2022/11/25 07:51:34;;;;;;;63.97;19.10;;;0.90;99.90;;;;;;4782943;30;20575;-86
2022/11/25 07:54:03;;;;;;;62.30;19.20;;;0.90;99.90;;;;;;4779611;30;20223;-86
2022/11/25 07:56:32;;;;;;;60.63;19.37;;;1.00;99.90;;;;;;4773292;30;20204;-84
2022/11/25 07:58:58;;;;;;;59.13;18.73;;;0.80;99.90;;;;;;4772175;30;20279;-86
2022/11/25 08:01:25;;;;;;;59.97;18.70;;;0.80;99.90;;;;;;4774409;30;20556;-88
2022/11/25 08:03:54;;;;;;;56.50;17.93;;;0.80;99.90;;;;;;4772134;30;20221;-88
2022/11/25 08:06:24;;;;;;;67.17;19.17;;;0.80;99.90;;;;;;4773830;30;20239;-87
2022/11/25 08:08:54;;;;;;;63.33;19.47;;;0.80;99.90;;;;;;4758193;30;20215;-88
2022/11/25 08:11:29;;;;;;;62.70;19.67;;;0.70;99.90;;;;;;4772267;30;20257;-90
2022/11/25 08:13:56;;;;;;;62.20;18.97;;;0.70;99.90;;;;;;4782409;30;20227;-87
2022/11/25 08:16:30;;;;;;;65.97;19.47;;;0.80;99.90;;;;;;4790248;30;20588;-88
2022/11/25 08:19:03;;;;;;;65.73;20.37;;;0.80;99.90;;;;;;4790757;29;20269;-85
2022/11/25 08:21:30;;;;;;;68.83;20.43;;;0.80;99.90;;;;;;4774717;30;20659;-85
2022/11/25 08:23:57;;;;;;;69.27;20.23;;;0.80;99.90;;;;;;4779457;30;20222;-84
2022/11/25 08:26:33;;;;;;;65.33;20.00;;;0.90;99.90;;;;;;4791419;29;20238;-88
2022/11/25 08:29:15;;;;;;;69.03;19.00;;;0.80;99.90;;;;;;4774529;30;20212;-90
2022/11/25 08:31:50;;;;;;;67.67;20.13;;;0.90;99.90;;;;;;4774894;30;20208;-93
2022/11/25 08:34:23;;;;;;;63.07;20.13;;;0.90;99.90;;;;;;4790540;29;20206;-86
2022/11/25 08:36:50;;;;;;;71.47;20.33;;;1.00;99.90;;;;;;4774231;30;20222;-85
2022/11/25 08:39:19;;;;;;;74.53;20.80;;;1.10;99.90;;;;;;4774291;30;20306;-83
2022/11/25 08:42:06;;;;;;;79.77;22.63;;;0.90;99.90;;;;;;4774158;30;20554;-84
2022/11/25 08:44:33;;;;;;;74.83;21.93;;;0.90;99.90;;;;;;4774451;29;20212;-89
2022/11/25 08:47:01;;;;;;;69.07;20.60;;;0.80;99.90;;;;;;4777391;29;20306;-86
2022/11/25 08:49:29;;;;;;;76.27;21.13;;;0.90;99.90;;;;;;4808763;29;20563;-86
2022/11/25 08:52:02;;;;;;;75.77;21.07;;;0.90;99.90;;;;;;4792637;29;20210;-86
2022/11/25 08:54:29;;;;;;;79.93;21.83;;;0.90;99.90;;;;;;4792812;29;20260;-89
2022/11/25 08:56:56;;;;;;;75.03;21.67;;;0.90;99.90;;;;;;4808945;29;20206;-90
2022/11/25 08:59:24;;;;;;;76.03;20.53;;;1.00;99.90;;;;;;4809069;29;20616;-88
2022/11/25 09:01:51;;;;;;;73.37;20.87;;;0.90;99.90;;;;;;4808782;29;20208;-87
2022/11/25 09:04:18;;;;;;;73.47;22.03;;;0.90;99.90;;;;;;4792798;29;20317;-89
2022/11/25 09:06:44;;;;;;;79.87;21.50;;;1.00;99.90;;;;;;4792652;29;20221;-88
2022/11/25 09:09:11;;;;;;;73.20;21.53;;;1.10;99.90;;;;;;4793127;29;20199;-88
2022/11/25 09:11:39;;;;;;;76.27;22.33;;;1.20;99.90;;;;;;4809711;29;20290;-88
2022/11/25 09:14:05;;;;;;;70.13;20.93;;;1.20;99.90;;;;;;4808484;29;20232;-93
2022/11/25 09:16:33;;;;;;;71.43;21.60;;;1.20;99.90;;;;;;4779524;29;20220;-88
2022/11/25 09:19:00;;;;;;;71.13;21.67;;;1.10;99.90;;;;;;4793423;29;20249;-89
2022/11/25 09:21:31;;;;;;;67.57;21.10;;;1.20;99.90;;;;;;4778251;29;20234;-92
2022/11/25 09:23:59;;;;;;;68.13;21.20;;;1.40;99.90;;;;;;4794367;29;20211;-92
2022/11/25 09:26:28;;;;;;;68.50;21.03;;;1.30;99.90;;;;;;4810033;29;20184;-90
2022/11/25 09:28:56;;;;;;;71.57;21.43;;;1.50;99.90;;;;;;4778615;29;20307;-94
2022/11/25 09:31:26;;;;;;;77.47;21.63;;;1.40;99.90;;;;;;4809412;29;20192;-92
2022/11/25 09:33:55;;;;;;;70.57;20.27;;;1.50;99.90;;;;;;4792105;29;20206;-88
2022/11/25 09:39:16;;;;;;;65.67;22.00;;;1.40;99.90;;;;;;4790984;29;20214;-91
2022/11/25 09:47:42;;;;;;;65.73;21.23;;;1.50;99.90;;;;;;4792553;29;20210;-90
2022/11/25 09:50:33;;;;;;;71.07;21.70;;;1.50;99.90;;;;;;4791569;29;20212;-89
2022/11/25 09:53:28;;;;;;;80.40;22.03;;;1.60;99.90;;;;;;4791938;29;20282;-89
2022/11/25 09:56:07;;;;;;;72.93;22.03;;;1.40;99.90;;;;;;4806303;29;20206;-89
2022/11/25 09:59:04;;;;;;;68.10;21.50;;;1.50;99.90;;;;;;4791167;29;20204;-89
2022/11/25 10:01:38;;;;;;;68.93;21.20;;;1.50;99.90;;;;;;4783322;29;20228;-88
2022/11/25 10:04:17;;;;;;;67.30;21.53;;;1.60;99.90;;;;;;4791902;29;20307;-89
2022/11/25 10:06:53;;;;;;;69.63;21.17;;;1.70;99.90;;;;;;4806556;29;20221;-90
2022/11/25 10:09:28;;;;;;;66.63;21.07;;;1.60;99.90;;;;;;4776596;29;20211;-91
2022/11/25 10:12:23;;;;;;;64.53;21.07;;;1.50;99.90;;;;;;4807661;29;20209;-91
2022/11/25 10:15:00;;;;;;;64.77;21.53;;;1.50;99.90;;;;;;4788462;29;20236;-89
2022/11/25 10:17:44;;;;;;;66.00;20.77;;;1.60;99.90;;;;;;4788217;30;20316;-91
2022/11/25 10:20:34;;;;;;;65.53;21.50;;;1.50;99.90;;;;;;4787740;29;20226;-91
2022/11/25 10:23:09;;;;;;;66.47;21.53;;;1.40;99.90;;;;;;4773483;30;20232;-91
2022/11/25 10:25:45;;;;;;;68.27;20.77;;;1.50;99.90;;;;;;4789982;29;20364;-92
2022/11/25 10:28:21;;;;;;;67.73;21.67;;;1.50;99.90;;;;;;4792993;30;20199;-91
2022/11/25 10:31:03;;;;;;;63.23;20.90;;;1.60;99.90;;;;;;4790351;30;20198;-92
2022/11/25 10:33:39;;;;;;;72.97;21.00;;;1.60;99.90;;;;;;4773585;30;20595;-94
2022/11/25 10:36:35;;;;;;;64.97;21.47;;;1.60;99.90;;;;;;4787942;29;20686;-92
2022/11/25 10:39:14;;;;;;;70.40;20.83;;;1.60;99.90;;;;;;4737375;30;20271;-92
2022/11/25 10:41:51;;;;;;;58.43;19.67;;;1.70;99.90;;;;;;4751177;30;20229;-92
2022/11/25 10:44:35;;;;;;;58.03;19.57;;;1.60;99.90;;;;;;4736778;30;20280;-90
2022/11/25 10:47:35;;;;;;;58.37;19.97;;;1.50;99.90;;;;;;4751471;30;20201;-91
2022/11/25 10:50:30;;;;;;;59.70;20.83;;;1.40;99.90;;;;;;4751349;30;20288;-91
2022/11/25 10:53:05;;;;;;;65.70;21.37;;;1.50;99.90;;;;;;4751062;30;20225;-91
2022/11/25 10:55:34;;;;;;;61.37;20.50;;;1.70;99.90;;;;;;4751627;30;20781;-91
2022/11/25 10:58:30;;;;;;;68.07;20.97;;;1.60;99.90;;;;;;4751722;30;20292;-89
2022/11/25 11:01:19;;;;;;;58.67;20.20;;;1.80;99.90;;;;;;4751038;30;20384;-88
2022/11/25 11:04:02;;;;;;;55.20;19.93;;;1.80;99.90;;;;;;4754639;30;20229;-91
2022/11/25 11:06:36;;;;;;;58.10;20.83;;;1.90;99.90;;;;;;4750888;30;20241;-89
2022/11/25 11:09:35;;;;;;;55.37;19.73;;;1.90;99.90;;;;;;4751129;30;20217;-90
2022/11/25 11:12:17;;;;;;;54.53;20.53;;;2.00;99.90;;;;;;4750703;30;20209;-91
2022/11/25 11:14:53;;;;;;;54.33;19.43;;;1.90;99.90;;;;;;4756938;30;20245;-92
2022/11/25 11:17:37;;;;;;;58.53;19.70;;;2.00;99.90;;;;;;4787922;29;20212;-92
2022/11/25 11:20:08;;;;;;;57.50;20.63;;;2.00;99.90;;;;;;4773137;30;20234;-91
2022/11/25 11:22:47;;;;;;;56.80;20.10;;;2.10;99.90;;;;;;4789178;29;20204;-91
2022/11/25 11:25:24;;;;;;;58.23;20.93;;;2.10;99.90;;;;;;4789008;29;20287;-91
2022/11/25 11:27:52;;;;;;;50.83;19.37;;;2.10;99.90;;;;;;4787425;30;20210;-90
2022/11/25 11:30:30;;;;;;;66.43;20.97;;;1.90;99.90;;;;;;4773263;30;20203;-91
2022/11/25 11:33:03;;;;;;;59.53;20.87;;;2.00;99.90;;;;;;4787274;29;20284;-90
2022/11/25 11:36:03;;;;;;;58.40;21.70;;;2.00;99.90;;;;;;4788812;29;20195;-90
2022/11/25 11:38:51;;;;;;;57.63;19.73;;;2.10;99.90;;;;;;4750568;30;20212;-90
2022/11/25 11:41:33;;;;;;;61.60;21.77;;;2.20;99.90;;;;;;4750829;30;20237;-90
2022/11/25 11:44:07;;;;;;;56.23;20.67;;;2.30;99.90;;;;;;4750816;30;20216;-91
2022/11/25 11:47:31;;;;;;;56.73;21.00;;;2.30;99.90;;;;;;4750852;30;20234;-92
2022/11/25 11:50:35;;;;;;;63.43;22.53;;;2.20;99.90;;;;;;4750122;30;20291;-91
2022/11/25 11:53:27;;;;;;;62.00;20.50;;;2.10;99.90;;;;;;4736990;30;20656;-91
2022/11/25 11:56:23;;;;;;;66.07;22.03;;;2.20;99.90;;;;;;4751024;30;20688;-90
2022/11/25 12:00:25;;;;;;;64.47;21.33;;;2.30;99.90;;;;;;4746521;30;20298;-90
2022/11/25 12:03:38;;;;;;;64.63;21.10;;;2.10;99.90;;;;;;4703932;30;20233;-89
2022/11/25 12:06:22;;;;;;;69.23;22.60;;;2.10;99.90;;;;;;4701138;30;20279;-87
2022/11/25 12:09:16;;;;;;;72.10;22.70;;;2.10;99.90;;;;;;4691369;30;20208;-89
2022/11/25 12:11:52;;;;;;;71.67;23.53;;;2.20;99.90;;;;;;4715321;30;20209;-91
2022/11/25 12:14:37;;;;;;;70.33;23.57;;;2.00;99.90;;;;;;4709403;30;20256;-88
2022/11/25 12:17:57;;;;;;;63.30;22.83;;;2.10;99.90;;;;;;4750331;30;20209;-93
2022/11/25 12:20:51;;;;;;;;;;;;;;;;;;;;;
2022/11/25 12:27:07;;;;;;;65.20;22.43;;;1.90;99.90;;;;;;4760219;30;20232;-91
2022/11/25 12:30:02;;;;;;;64.63;22.90;;;2.00;99.90;;;;;;4747197;30;20695;-91
2022/11/25 12:33:01;;;;;;;71.43;24.10;;;2.00;99.90;;;;;;4758733;30;20237;-90
2022/11/25 12:36:17;;;;;;;73.23;22.57;;;2.10;99.90;;;;;;4778921;30;20216;-90
2022/11/25 12:38:58;;;;;;;72.53;22.93;;;2.00;99.90;;;;;;4788155;30;20675;-90
2022/11/25 12:42:08;;;;;;;68.73;22.40;;;2.10;99.90;;;;;;4801631;29;20233;-89
2022/11/25 12:44:50;;;;;;;80.73;24.63;;;2.00;99.90;;;;;;4792364;29;20222;-87
2022/11/25 12:47:21;;;;;;;71.07;23.40;;;2.20;99.90;;;;;;4790881;30;20212;-90
2022/11/25 12:53:34;;;;;;;76.30;23.43;;;2.20;99.90;;;;;;4771142;30;20753;-89
2022/11/25 12:56:21;;;;;;;80.90;24.07;;;2.20;99.90;;;;;;4770768;30;20278;-90
2022/11/25 12:59:26;;;;;;;77.80;27.23;;;2.20;99.90;;;;;;4756366;30;20683;-92
2022/11/25 13:02:26;;;;;;;73.60;23.87;;;2.10;99.90;;;;;;4757280;30;20221;-89
2022/11/25 13:05:30;;;;;;;75.83;24.47;;;2.00;99.90;;;;;;4755814;30;20282;-89
2022/11/25 13:08:50;;;;;;;82.03;26.10;;;2.00;99.90;;;;;;4755485;30;20232;-90
2022/11/25 13:11:23;;;;;;;78.53;24.13;;;1.90;99.90;;;;;;4755543;30;20639;-89
2022/11/25 13:14:12;;;;;;;80.97;25.57;;;2.00;99.90;;;;;;4755055;30;20245;-86
2022/11/25 13:16:41;;;;;;;78.23;25.27;;;2.00;99.90;;;;;;4740786;30;20618;-88
2022/11/25 13:19:11;;;;;;;82.27;24.13;;;1.90;99.90;;;;;;4758311;30;20291;-86
2022/11/25 13:22:01;;;;;;;72.10;24.57;;;2.00;99.90;;;;;;4770530;30;20278;-90
2022/11/25 13:24:57;;;;;;;73.07;23.87;;;2.00;99.90;;;;;;4755296;30;20208;-87
2022/11/25 13:28:25;;;;;;;;;;;;;;;;;;;;;
2022/11/25 13:31:53;;;;;;;84.27;25.43;;;1.90;99.90;;;;;;4749619;30;20223;-85
2022/11/25 13:34:37;;;;;;;84.17;23.97;;;2.00;99.90;;;;;;4738480;30;20217;-83
2022/11/25 13:37:47;;;;;;;77.03;25.37;;;2.10;99.90;;;;;;4753676;30;20278;-95
2022/11/25 13:40:32;;;;;;;80.03;25.87;;;2.00;99.90;;;;;;4737837;30;20213;-85
2022/11/25 13:43:21;;;;;;;76.23;25.63;;;2.00;99.90;;;;;;4724513;30;20260;-87
2022/11/25 13:46:07;;;;;;;79.53;25.90;;;2.00;99.90;;;;;;4736968;30;20664;-87